Time;durP1;ratioP1;P1;durP2;ratioP2;P2;SDS_P1;SDS_P2;PMS_P1;PMS_P2;Temp;Humidity;BMP_temperature;BMP_pressure;BME280_temperature;BME280_humidity;BME280_pressure;Samples;Min_cycle;Max_cycle;Signal;HPM_P1;HPM_P2
2023/01/04 00:01:36;;;;;;;357.73;176.63;;;7.20;99.90;;;;;;5111940;28;20435;-75
2023/01/04 00:04:07;;;;;;;408.00;205.73;;;7.10;99.90;;;;;;5114416;28;20031;-75
2023/01/04 00:06:59;;;;;;;384.95;186.57;;;7.20;99.90;;;;;;5114285;28;20043;-75
2023/01/04 00:09:29;;;;;;;393.45;189.00;;;7.10;99.90;;;;;;5114391;28;20027;-75
2023/01/04 00:16:07;;;;;;;381.35;185.15;;;7.00;99.90;;;;;;5114301;28;20111;-76
2023/01/04 00:18:36;;;;;;;385.02;193.02;;;6.90;99.90;;;;;;5114238;28;20110;-75
2023/01/04 00:21:25;;;;;;;400.27;196.52;;;6.90;99.90;;;;;;5114492;28;20566;-75
2023/01/04 00:23:55;;;;;;;412.33;205.57;;;6.80;99.90;;;;;;5096176;28;20469;-75
2023/01/04 00:26:31;;;;;;;403.88;196.57;;;6.70;99.90;;;;;;5114289;28;20024;-75
2023/01/04 00:29:19;;;;;;;414.80;199.18;;;6.80;99.90;;;;;;5057158;28;20049;-75
2023/01/04 00:40:01;;;;;;;399.58;198.27;;;6.50;99.90;;;;;;5051266;28;20091;-75
2023/01/04 00:47:14;;;;;;;374.38;185.45;;;6.40;99.90;;;;;;5051438;28;20043;-75
2023/01/04 00:50:02;;;;;;;418.77;198.30;;;6.30;99.90;;;;;;5052553;28;20603;-75
2023/01/04 00:57:07;;;;;;;481.88;226.35;;;6.20;99.90;;;;;;5054832;28;20107;-76
2023/01/04 00:59:54;;;;;;;455.90;221.75;;;6.10;99.90;;;;;;5054546;28;20029;-76
2023/01/04 01:02:36;;;;;;;437.45;210.73;;;6.00;99.90;;;;;;5053984;28;20571;-75
2023/01/04 01:05:08;;;;;;;470.52;224.57;;;6.10;99.90;;;;;;5067810;28;20407;-76
2023/01/04 01:07:37;;;;;;;517.90;244.27;;;6.10;99.90;;;;;;5037532;28;20116;-76
2023/01/04 01:10:06;;;;;;;696.35;315.35;;;6.20;99.90;;;;;;5053639;28;20052;-76
2023/01/04 01:12:34;;;;;;;514.67;249.32;;;6.30;99.90;;;;;;5053964;28;20057;-76
2023/01/04 01:15:03;;;;;;;452.63;215.32;;;6.30;99.90;;;;;;5068284;28;20091;-76
2023/01/04 01:17:35;;;;;;;504.33;238.98;;;6.20;99.90;;;;;;5076111;28;20482;-76
2023/01/04 01:20:11;;;;;;;468.27;222.88;;;6.20;99.90;;;;;;5045233;28;20039;-76
2023/01/04 01:23:14;;;;;;;414.27;204.30;;;6.10;99.90;;;;;;5076668;28;20091;-76
2023/01/04 01:26:31;;;;;;;456.50;223.25;;;6.20;99.90;;;;;;5076449;28;20510;-76
2023/01/04 01:29:06;;;;;;;507.77;254.77;;;6.30;99.90;;;;;;5076491;28;20020;-76
2023/01/04 01:31:45;;;;;;;520.78;262.83;;;6.10;99.90;;;;;;5073832;28;20126;-76
2023/01/04 01:34:11;;;;;;;478.98;234.05;;;5.90;99.90;;;;;;5095924;28;20763;-76
2023/01/04 01:36:40;;;;;;;433.08;223.52;;;5.90;99.90;;;;;;5096713;28;20028;-76
2023/01/04 01:39:16;;;;;;;436.20;223.60;;;5.80;99.90;;;;;;5093814;28;20135;-76
2023/01/04 01:42:22;;;;;;;421.23;208.07;;;5.70;99.90;;;;;;5078903;28;20504;-76
2023/01/04 01:52:40;;;;;;;433.45;211.20;;;5.50;99.90;;;;;;5096566;28;20156;-76
2023/01/04 02:03:13;;;;;;;476.65;230.52;;;5.40;99.90;;;;;;5095889;28;20055;-75
2023/01/04 02:05:41;;;;;;;453.92;226.40;;;5.40;99.90;;;;;;5095837;28;20043;-76
2023/01/04 02:08:17;;;;;;;470.98;234.57;;;5.20;99.90;;;;;;5077764;28;20032;-76
2023/01/04 02:11:11;;;;;;;411.88;208.13;;;5.20;99.90;;;;;;5079475;28;20071;-76
2023/01/04 02:18:09;;;;;;;430.85;199.07;;;5.20;99.90;;;;;;5095663;28;20040;-75
2023/01/04 02:25:09;;;;;;;380.23;182.32;;;5.00;99.90;;;;;;5095700;28;20038;-75
2023/01/04 02:27:52;;;;;;;388.60;189.55;;;5.10;99.90;;;;;;5095828;28;20102;-76
2023/01/04 02:31:08;;;;;;;412.42;206.20;;;5.20;99.90;;;;;;5095444;28;20481;-76
2023/01/04 02:37:34;;;;;;;437.48;212.95;;;5.30;99.90;;;;;;5095319;28;20097;-76
2023/01/04 02:40:28;;;;;;;518.55;241.68;;;5.40;99.90;;;;;;5095434;28;20028;-76
2023/01/04 02:47:07;;;;;;;467.85;217.98;;;5.00;99.90;;;;;;5052612;28;20442;-76
2023/01/04 02:52:31;;;;;;;431.88;212.15;;;4.90;99.90;;;;;;5052745;28;20043;-76
2023/01/04 02:55:06;;;;;;;418.00;206.48;;;5.00;99.90;;;;;;5051693;28;20041;-76
2023/01/04 03:09:33;;;;;;;438.90;212.50;;;5.00;99.90;;;;;;4916137;29;20035;-75
2023/01/04 03:15:24;;;;;;;439.70;213.10;;;4.80;99.90;;;;;;4914618;29;20479;-76
2023/01/04 03:21:52;;;;;;;427.30;202.77;;;4.70;99.90;;;;;;4973551;28;20061;-76
2023/01/04 03:49:09;;;;;;;411.77;200.27;;;4.60;99.90;;;;;;4953869;29;20059;-75
2023/01/04 03:51:45;;;;;;;380.70;183.63;;;4.60;99.90;;;;;;4953745;29;20506;-75
2023/01/04 03:54:16;;;;;;;;;;;4.60;99.90;;;;;;4954156;29;20062;-75
2023/01/04 03:58:04;;;;;;;355.67;171.25;;;4.80;99.90;;;;;;4936800;29;20336;-76
2023/01/04 04:00:33;;;;;;;331.67;163.10;;;4.60;99.90;;;;;;4953480;28;20082;-75
2023/01/04 04:03:10;;;;;;;318.30;156.23;;;4.40;99.90;;;;;;4953613;29;20039;-76
2023/01/04 04:08:46;;;;;;;308.48;151.48;;;4.30;99.90;;;;;;4953297;29;20118;-76
2023/01/04 04:15:17;;;;;;;358.77;173.30;;;4.50;99.90;;;;;;4924424;29;20080;-75
2023/01/04 04:19:10;;;;;;;377.52;181.00;;;4.60;99.90;;;;;;4934220;29;20040;-75
2023/01/04 04:30:14;;;;;;;345.42;164.57;;;5.00;99.90;;;;;;5035064;28;20029;-75
2023/01/04 04:33:03;;;;;;;335.92;165.75;;;4.90;99.90;;;;;;5035013;28;20044;-75
2023/01/04 04:35:35;;;;;;;339.42;170.57;;;4.90;99.90;;;;;;5051281;28;20045;-75
2023/01/04 04:38:35;;;;;;;380.20;188.95;;;5.00;99.90;;;;;;5034938;28;20530;-75
2023/01/04 04:48:55;;;;;;;429.40;209.40;;;4.90;99.90;;;;;;5035167;28;20064;-75
2023/01/04 04:58:50;;;;;;;362.20;179.75;;;4.50;99.90;;;;;;5097246;28;20042;-75
2023/01/04 05:01:27;;;;;;;331.67;169.15;;;4.50;99.90;;;;;;5097325;28;20070;-75
2023/01/04 05:03:56;;;;;;;343.15;176.25;;;4.50;99.90;;;;;;5096200;28;20351;-75
2023/01/04 05:06:53;;;;;;;386.30;194.15;;;4.50;99.90;;;;;;5079217;28;20032;-75
2023/01/04 05:12:58;;;;;;;445.15;228.85;;;4.50;99.90;;;;;;5086761;28;20058;-75
2023/01/04 05:19:09;;;;;;;427.85;216.82;;;4.90;99.90;;;;;;5075544;28;20116;-75
2023/01/04 05:25:57;;;;;;;408.75;198.55;;;4.90;99.90;;;;;;5076801;28;20131;-75
2023/01/04 05:28:33;;;;;;;313.73;151.38;;;5.00;99.90;;;;;;5076505;28;20037;-75
2023/01/04 05:31:26;;;;;;;299.02;144.48;;;5.00;99.90;;;;;;5080485;28;20016;-75
2023/01/04 05:37:50;;;;;;;338.48;164.10;;;4.90;99.90;;;;;;5073890;28;20168;-75
2023/01/04 05:40:49;;;;;;;330.02;161.93;;;4.90;99.90;;;;;;5058325;28;20051;-75
2023/01/04 05:43:39;;;;;;;429.27;196.83;;;4.80;99.90;;;;;;5073385;28;20048;-75
2023/01/04 05:46:51;;;;;;;402.38;185.10;;;4.90;99.90;;;;;;5060701;28;20632;-76
2023/01/04 05:50:00;;;;;;;402.33;201.85;;;4.80;99.90;;;;;;5073615;28;20632;-75
2023/01/04 05:52:28;;;;;;;379.30;184.48;;;4.90;99.90;;;;;;5073643;28;20485;-75
2023/01/04 05:55:04;;;;;;;384.98;194.93;;;5.00;99.90;;;;;;5057115;28;20325;-75
2023/01/04 05:57:33;;;;;;;384.67;193.07;;;5.10;99.90;;;;;;5056924;28;20047;-75
2023/01/04 06:07:28;;;;;;;;;;;5.20;99.90;;;;;;5073089;28;20039;-75
2023/01/04 06:09:56;;;;;;;440.30;207.75;;;5.20;99.90;;;;;;5073187;28;19916;-75
2023/01/04 06:12:25;;;;;;;418.13;204.52;;;5.20;99.90;;;;;;5073312;28;20519;-75
2023/01/04 06:14:53;;;;;;;456.13;225.32;;;5.20;99.90;;;;;;5072986;28;20044;-75
2023/01/04 06:17:25;;;;;;;349.73;170.05;;;5.20;99.90;;;;;;5056951;28;20068;-75
2023/01/04 06:20:03;;;;;;;343.23;166.60;;;5.40;99.90;;;;;;5048294;28;20111;-75
2023/01/04 06:22:31;;;;;;;347.85;166.65;;;5.30;99.90;;;;;;5106826;27;20027;-75
2023/01/04 06:24:58;;;;;;;345.98;168.95;;;5.30;99.90;;;;;;5127047;27;20510;-75
2023/01/04 06:27:31;;;;;;;357.17;174.75;;;5.20;99.90;;;;;;5114073;28;20421;-75
2023/01/04 06:29:59;;;;;;;362.58;179.38;;;5.20;99.90;;;;;;5110480;27;20020;-75
2023/01/04 06:35:55;;;;;;;350.63;170.93;;;5.30;99.90;;;;;;5092253;27;20134;-75
2023/01/04 06:39:01;;;;;;;347.50;167.18;;;5.30;99.90;;;;;;5112028;28;20035;-75
2023/01/04 06:41:28;;;;;;;329.42;164.00;;;5.30;99.90;;;;;;5104478;27;20035;-75
2023/01/04 06:44:16;;;;;;;333.70;169.52;;;5.20;99.90;;;;;;5115611;27;20081;-76
2023/01/04 06:46:51;;;;;;;376.23;196.32;;;5.20;99.90;;;;;;5084406;28;20028;-76
2023/01/04 06:49:59;;;;;;;326.50;155.80;;;5.30;99.90;;;;;;5106572;28;20031;-76
2023/01/04 06:56:53;;;;;;;366.00;173.20;;;5.30;99.90;;;;;;5107555;27;20066;-76
2023/01/04 06:59:25;;;;;;;350.25;170.55;;;5.40;99.90;;;;;;5098079;28;20023;-76
2023/01/04 07:05:48;;;;;;;357.35;178.30;;;5.60;99.90;;;;;;5103270;28;20047;-76
2023/01/04 07:08:24;;;;;;;373.45;187.63;;;5.60;99.90;;;;;;5110752;27;20039;-76
2023/01/04 07:10:50;;;;;;;357.50;177.27;;;5.60;99.90;;;;;;5135189;27;20047;-76
2023/01/04 07:20:53;;;;;;;;;;;5.80;99.90;;;;;;5116603;27;20123;-76
2023/01/04 07:23:27;;;;;;;436.55;210.35;;;5.80;99.90;;;;;;5104793;28;19962;-76
2023/01/04 07:26:01;;;;;;;389.63;200.15;;;5.80;99.90;;;;;;5093800;28;20024;-76
2023/01/04 07:34:57;;;;;;;406.23;180.50;;;6.10;99.90;;;;;;5073923;28;20082;-78
2023/01/04 07:37:49;;;;;;;373.25;177.15;;;6.20;99.90;;;;;;5055570;28;20132;-79
2023/01/04 07:40:19;;;;;;;351.00;177.55;;;6.30;99.90;;;;;;5072597;28;20040;-75
2023/01/04 07:43:21;;;;;;;337.33;165.35;;;6.40;99.90;;;;;;5092469;28;20036;-77
2023/01/04 07:49:50;;;;;;;337.15;165.23;;;6.60;99.90;;;;;;5072210;28;20045;-78
2023/01/04 07:52:17;;;;;;;337.05;166.68;;;6.50;99.90;;;;;;5070925;28;20350;-76
2023/01/04 07:54:49;;;;;;;333.35;167.82;;;6.60;99.90;;;;;;5077299;28;20381;-77
2023/01/04 07:57:20;;;;;;;310.10;154.35;;;6.60;99.90;;;;;;5092570;28;20548;-73
2023/01/04 07:59:51;;;;;;;317.90;159.05;;;6.70;99.90;;;;;;5097570;28;20047;-74
2023/01/04 08:02:25;;;;;;;312.80;155.30;;;6.70;99.90;;;;;;5115011;28;20429;-73
2023/01/04 08:05:00;;;;;;;268.85;133.80;;;6.90;99.90;;;;;;5118403;28;20024;-74
2023/01/04 08:12:03;;;;;;;253.30;120.07;;;7.00;99.90;;;;;;5118019;28;20125;-73
2023/01/04 08:14:52;;;;;;;292.48;142.23;;;7.10;99.90;;;;;;5110719;28;20098;-73
2023/01/04 08:17:25;;;;;;;324.95;161.13;;;7.20;99.90;;;;;;5094798;28;20028;-73
2023/01/04 08:21:14;;;;;;;452.35;212.25;;;7.30;99.90;;;;;;5079494;28;20044;-73
2023/01/04 08:23:45;;;;;;;550.08;247.63;;;7.40;99.90;;;;;;5097312;28;20032;-73
2023/01/04 08:26:13;;;;;;;601.20;282.67;;;7.40;99.90;;;;;;5078257;28;20456;-73
2023/01/04 08:28:42;;;;;;;575.05;270.02;;;7.40;99.90;;;;;;5078988;28;20352;-74
2023/01/04 08:31:29;;;;;;;579.50;270.85;;;7.40;99.90;;;;;;5094144;28;20040;-74
2023/01/04 08:34:04;;;;;;;545.72;255.40;;;7.40;99.90;;;;;;5062065;28;20040;-74
2023/01/04 08:36:41;;;;;;;519.60;249.68;;;7.60;99.90;;;;;;5078035;28;20048;-74
2023/01/04 08:39:13;;;;;;;502.52;240.95;;;7.70;99.90;;;;;;5062568;28;20525;-74
2023/01/04 08:41:52;;;;;;;435.98;216.25;;;7.70;99.90;;;;;;5078896;28;20036;-74
2023/01/04 08:48:16;;;;;;;291.55;150.98;;;7.80;99.90;;;;;;5107795;28;20027;-73
2023/01/04 09:02:51;;;;;;;335.45;176.55;;;8.00;99.90;;;;;;5116911;28;20092;-78
2023/01/04 09:05:25;;;;;;;350.30;179.57;;;7.90;99.90;;;;;;5102486;28;20130;-78
2023/01/04 09:07:51;;;;;;;358.65;186.23;;;8.00;99.90;;;;;;5107565;28;20415;-80
2023/01/04 09:10:40;;;;;;;355.98;177.13;;;8.10;99.90;;;;;;5103625;28;20023;-78
2023/01/04 09:13:10;;;;;;;347.40;182.75;;;8.10;99.90;;;;;;5080071;28;20040;-79
2023/01/04 09:15:37;;;;;;;327.33;172.55;;;8.30;99.90;;;;;;5093553;28;20101;-80
2023/01/04 09:18:10;;;;;;;279.50;152.38;;;8.40;99.90;;;;;;5096871;28;20028;-80
2023/01/04 09:20:43;;;;;;;264.08;146.93;;;8.40;99.90;;;;;;5088261;28;20048;-80
2023/01/04 09:23:10;;;;;;;275.33;151.43;;;8.40;99.90;;;;;;5103833;28;20039;-80
2023/01/04 09:26:15;;;;;;;261.67;141.75;;;8.50;99.90;;;;;;5113320;28;20030;-80
2023/01/04 09:28:42;;;;;;;242.35;130.18;;;8.60;99.90;;;;;;5108368;28;20058;-81
2023/01/04 09:31:16;;;;;;;234.77;127.90;;;8.60;99.90;;;;;;5101637;28;20031;-80
2023/01/04 09:33:45;;;;;;;231.07;125.18;;;8.80;99.90;;;;;;5105150;28;20085;-80
2023/01/04 09:36:19;;;;;;;237.70;127.45;;;8.90;99.90;;;;;;5101792;28;20024;-82
2023/01/04 09:42:35;;;;;;;301.15;153.32;;;8.90;99.90;;;;;;5117588;28;20031;-77
2023/01/04 09:45:19;;;;;;;294.75;154.05;;;9.10;99.90;;;;;;5117587;28;20093;-76
2023/01/04 09:48:16;;;;;;;309.40;158.43;;;9.20;99.90;;;;;;5117610;28;20032;-74
2023/01/04 09:50:51;;;;;;;355.25;177.48;;;9.00;99.90;;;;;;5089494;28;20130;-77
2023/01/04 09:53:31;;;;;;;324.35;161.63;;;9.10;99.90;;;;;;5116326;28;20098;-76
2023/01/04 09:56:33;;;;;;;291.45;147.65;;;9.20;99.90;;;;;;5115290;28;20024;-76
2023/01/04 09:59:06;;;;;;;298.73;142.88;;;9.20;99.90;;;;;;5116235;28;20098;-77
2023/01/04 10:01:48;;;;;;;237.30;122.25;;;9.20;99.90;;;;;;5120503;27;20034;-81
2023/01/04 10:04:45;;;;;;;193.18;105.07;;;9.40;99.90;;;;;;5135796;27;20034;-81
2023/01/04 10:07:25;;;;;;;177.23;93.95;;;9.50;99.90;;;;;;5106530;27;20044;-82
2023/01/04 10:09:51;;;;;;;168.15;87.50;;;9.60;99.90;;;;;;5122627;27;20023;-82
2023/01/04 10:12:39;;;;;;;295.67;122.90;;;9.70;99.90;;;;;;5126984;27;20032;-78
2023/01/04 10:15:19;;;;;;;329.67;137.52;;;9.80;99.90;;;;;;5136581;27;20027;-76
2023/01/04 10:18:09;;;;;;;268.17;127.35;;;9.80;99.90;;;;;;5135976;27;20034;-74
2023/01/04 10:21:25;;;;;;;271.70;118.73;;;9.90;99.90;;;;;;5123494;27;20110;-73
2023/01/04 10:24:13;;;;;;;247.90;110.28;;;10.00;99.90;;;;;;5018443;28;20034;-78
2023/01/04 10:26:48;;;;;;;279.90;117.22;;;10.20;99.90;;;;;;5041709;28;20453;-73
2023/01/04 10:29:47;;;;;;;192.27;92.35;;;10.30;99.90;;;;;;5113528;27;20023;-71
2023/01/04 10:32:40;;;;;;;245.20;107.22;;;10.40;99.90;;;;;;5121927;27;20372;-72
2023/01/04 10:35:22;;;;;;;208.73;95.68;;;10.50;99.90;;;;;;5125289;27;20023;-73
2023/01/04 10:37:57;;;;;;;183.18;86.85;;;10.60;99.90;;;;;;5104458;27;20020;-73
2023/01/04 10:40:32;;;;;;;171.50;86.43;;;10.60;99.90;;;;;;5124458;27;20083;-73
2023/01/04 10:43:04;;;;;;;144.18;71.43;;;11.00;99.90;;;;;;5131202;27;20039;-75
2023/01/04 10:45:56;;;;;;;152.38;78.53;;;11.20;99.90;;;;;;5108716;28;20217;-74
2023/01/04 10:48:40;;;;;;;150.65;78.60;;;11.50;99.90;;;;;;5107272;28;20110;-74
2023/01/04 10:51:06;;;;;;;155.40;78.95;;;12.00;99.90;;;;;;5109583;27;20030;-72
2023/01/04 10:53:47;;;;;;;166.13;82.13;;;12.20;99.90;;;;;;5111842;27;20023;-75
2023/01/04 10:56:16;;;;;;;143.30;69.75;;;12.50;99.90;;;;;;5090943;28;20032;-72
2023/01/04 10:59:03;;;;;;;129.73;69.38;;;12.60;99.90;;;;;;5110223;28;20073;-72
2023/01/04 11:01:39;;;;;;;146.80;72.70;;;12.80;99.90;;;;;;5125876;27;20484;-72
2023/01/04 11:04:18;;;;;;;154.90;73.57;;;13.10;99.90;;;;;;5131134;27;20035;-72
2023/01/04 11:06:51;;;;;;;146.43;68.72;;;13.40;99.90;;;;;;5123603;27;20031;-72
2023/01/04 11:09:22;;;;;;;125.90;64.22;;;13.50;99.10;;;;;;5108130;27;20489;-72
2023/01/04 11:11:49;;;;;;;142.38;72.25;;;13.70;96.90;;;;;;5117102;27;20028;-73
2023/01/04 11:14:16;;;;;;;126.03;61.65;;;13.90;96.80;;;;;;5118072;27;20054;-73
2023/01/04 11:16:47;;;;;;;130.10;62.13;;;13.90;95.70;;;;;;5134849;27;20084;-74
2023/01/04 11:19:13;;;;;;;;;;;14.00;94.90;;;;;;5124144;27;20027;-74
2023/01/04 11:21:51;;;;;;;113.75;59.33;;;14.00;94.80;;;;;;5114821;28;19997;-73
2023/01/04 11:24:17;;;;;;;181.70;82.63;;;14.00;95.20;;;;;;5114521;28;20111;-73
2023/01/04 11:26:47;;;;;;;128.30;64.75;;;13.90;94.90;;;;;;5123148;27;20396;-69
2023/01/04 11:29:49;;;;;;;112.32;58.45;;;13.90;94.60;;;;;;5121814;27;20051;-73
2023/01/04 11:32:38;;;;;;;109.22;56.72;;;13.90;93.70;;;;;;5118467;27;20024;-74
2023/01/04 11:35:04;;;;;;;117.45;59.75;;;13.90;93.80;;;;;;5125534;27;20030;-73
2023/01/04 11:37:36;;;;;;;99.78;56.13;;;13.90;93.30;;;;;;5133496;27;20039;-74
2023/01/04 11:40:25;;;;;;;101.55;56.35;;;14.00;94.10;;;;;;5135078;28;20026;-77
2023/01/04 11:43:11;;;;;;;113.15;57.08;;;13.90;93.10;;;;;;5135831;28;20031;-75
2023/01/04 11:45:37;;;;;;;108.47;57.35;;;14.10;92.60;;;;;;5135513;28;20350;-72
2023/01/04 11:48:06;;;;;;;117.30;57.92;;;14.20;91.90;;;;;;5136117;28;20112;-73
2023/01/04 11:50:34;;;;;;;102.65;57.13;;;14.30;91.70;;;;;;5134484;28;20027;-73
2023/01/04 11:53:01;;;;;;;110.63;57.22;;;14.00;91.10;;;;;;5134724;28;20031;-73
2023/01/04 11:55:29;;;;;;;115.35;57.47;;;14.10;92.00;;;;;;5135226;28;20027;-73
2023/01/04 11:58:26;;;;;;;104.80;57.40;;;14.20;91.90;;;;;;5135160;28;20057;-73
2023/01/04 12:00:55;;;;;;;96.47;52.58;;;13.90;91.10;;;;;;5114998;28;20043;-73
2023/01/04 12:03:37;;;;;;;103.47;53.65;;;14.00;91.70;;;;;;5132001;28;20034;-73
2023/01/04 12:06:29;;;;;;;123.13;56.33;;;13.70;91.00;;;;;;5114059;28;20035;-73
2023/01/04 12:08:55;;;;;;;103.97;56.30;;;13.70;91.60;;;;;;5113668;28;20054;-74
2023/01/04 12:11:35;;;;;;;124.68;63.97;;;13.70;91.50;;;;;;5114288;28;20028;-73
2023/01/04 12:14:02;;;;;;;123.18;66.40;;;13.50;91.80;;;;;;5114348;28;20479;-74
2023/01/04 12:16:53;;;;;;;128.88;67.85;;;13.50;92.60;;;;;;5124304;28;20430;-73
2023/01/04 12:19:21;;;;;;;143.50;78.47;;;13.70;92.10;;;;;;5122506;28;20028;-73
2023/01/04 12:21:50;;;;;;;141.98;71.38;;;13.40;91.80;;;;;;5113721;28;20093;-73
2023/01/04 12:24:27;;;;;;;122.40;65.00;;;13.30;92.20;;;;;;5114076;28;20059;-73
2023/01/04 12:26:54;;;;;;;131.95;71.75;;;13.50;91.30;;;;;;5111161;28;20047;-73
2023/01/04 12:29:23;;;;;;;147.55;70.22;;;13.70;91.20;;;;;;5114135;28;20028;-73
2023/01/04 12:31:51;;;;;;;127.57;65.57;;;13.90;90.40;;;;;;5117098;28;20480;-73
2023/01/04 12:34:24;;;;;;;118.82;62.00;;;14.00;90.70;;;;;;5095816;28;20493;-73
2023/01/04 12:36:55;;;;;;;83.78;46.03;;;14.10;87.40;;;;;;5114087;28;20042;-73
2023/01/04 12:39:21;;;;;;;89.15;48.40;;;13.90;86.00;;;;;;5114031;28;20071;-73
2023/01/04 12:42:08;;;;;;;116.72;62.30;;;14.10;87.30;;;;;;5113925;28;20119;-74
2023/01/04 12:44:37;;;;;;;99.07;54.00;;;14.00;86.10;;;;;;5114609;28;20545;-73
2023/01/04 12:51:16;;;;;;;109.50;50.75;;;13.90;85.00;;;;;;5017905;28;20034;-95
2023/01/04 12:53:57;;;;;;;105.30;49.00;;;13.80;85.50;;;;;;5001152;28;20089;-95
2023/01/04 12:57:01;;;;;;;92.03;47.00;;;13.70;86.00;;;;;;5000957;28;20026;-95
2023/01/04 12:59:53;;;;;;;81.35;40.47;;;13.90;86.30;;;;;;5016127;28;20022;-95
2023/01/04 13:02:22;;;;;;;;;;;14.10;85.00;;;;;;4975896;28;20034;-95
2023/01/04 13:04:50;;;;;;;86.57;40.38;;;14.00;83.60;;;;;;5001927;28;19917;-95
2023/01/04 13:07:40;;;;;;;81.05;41.03;;;14.40;82.70;;;;;;4972252;28;20128;-92
2023/01/04 13:10:27;;;;;;;71.40;39.50;;;14.50;82.20;;;;;;5001486;28;20026;-92
2023/01/04 13:13:24;;;;;;;87.75;39.50;;;14.70;80.90;;;;;;4986170;28;20403;-95
2023/01/04 13:16:23;;;;;;;62.67;32.72;;;14.90;79.60;;;;;;5001112;28;20034;-96
2023/01/04 13:18:59;;;;;;;72.70;35.25;;;15.20;77.40;;;;;;4997385;28;20102;-95
2023/01/04 13:21:32;;;;;;;70.88;35.78;;;15.10;76.10;;;;;;4982652;28;20038;-96
2023/01/04 13:24:17;;;;;;;91.65;40.30;;;15.10;76.90;;;;;;5003784;28;20041;-96
2023/01/04 13:26:47;;;;;;;85.90;39.65;;;15.10;75.40;;;;;;5021381;28;20089;-96
2023/01/04 13:29:20;;;;;;;53.05;27.40;;;14.80;75.80;;;;;;5054360;28;20115;-95
2023/01/04 13:31:53;;;;;;;62.92;30.92;;;15.00;75.80;;;;;;5024132;28;20421;-95
2023/01/04 13:34:24;;;;;;;74.53;31.80;;;15.20;74.60;;;;;;5040776;28;20120;-96
2023/01/04 13:37:17;;;;;;;40.65;23.17;;;15.50;73.40;;;;;;5024162;28;20029;-95
2023/01/04 13:39:58;;;;;;;46.05;24.67;;;15.80;71.70;;;;;;5028934;28;20474;-94
2023/01/04 13:42:34;;;;;;;51.08;26.10;;;16.30;70.00;;;;;;5051504;28;20033;-95
2023/01/04 13:45:23;;;;;;;57.92;27.60;;;16.60;67.90;;;;;;5039909;28;20573;-96
2023/01/04 13:48:00;;;;;;;64.30;28.83;;;16.80;66.60;;;;;;5030976;28;20083;-95
2023/01/04 13:50:48;;;;;;;60.95;27.05;;;16.90;64.90;;;;;;5035599;28;20119;-95
2023/01/04 13:53:26;;;;;;;92.60;41.15;;;16.90;64.60;;;;;;5056008;28;20033;-95
2023/01/04 13:55:54;;;;;;;57.42;31.58;;;17.20;64.70;;;;;;5037634;28;20540;-95
2023/01/04 13:58:30;;;;;;;68.30;37.13;;;17.30;62.50;;;;;;5039101;28;20131;-96
2023/01/04 14:01:05;;;;;;;80.57;41.35;;;17.30;63.40;;;;;;5038877;28;20044;-96
2023/01/04 14:03:40;;;;;;;72.40;37.38;;;17.30;63.20;;;;;;5039352;28;20044;-96
2023/01/04 14:06:08;;;;;;;71.43;37.75;;;17.60;62.30;;;;;;5023213;28;20028;-95
2023/01/04 14:08:43;;;;;;;61.63;34.20;;;17.60;61.80;;;;;;5038078;28;20075;-93
2023/01/04 14:14:35;;;;;;;81.38;41.40;;;17.80;59.50;;;;;;5053210;28;20112;-95
2023/01/04 14:17:18;;;;;;;69.70;40.55;;;17.10;61.10;;;;;;4974642;28;20141;-94
2023/01/04 14:19:55;;;;;;;78.75;38.35;;;17.20;60.90;;;;;;5043137;28;20119;-95
2023/01/04 14:22:24;;;;;;;80.68;38.70;;;17.10;60.60;;;;;;5043165;28;20048;-95
2023/01/04 14:24:53;;;;;;;75.45;38.40;;;17.60;60.60;;;;;;5043042;28;20037;-95
2023/01/04 14:27:33;;;;;;;95.55;39.90;;;17.60;59.80;;;;;;5043149;28;20555;-95
2023/01/04 14:30:17;;;;;;;85.53;40.67;;;17.50;59.70;;;;;;5059721;28;20032;-94
2023/01/04 14:32:57;;;;;;;71.40;35.88;;;17.30;60.40;;;;;;5043009;28;20028;-93
2023/01/04 14:35:25;;;;;;;81.22;37.25;;;17.30;61.20;;;;;;5043115;28;20032;-92
2023/01/04 14:37:51;;;;;;;85.97;39.25;;;17.10;61.80;;;;;;5042827;28;20033;-92
2023/01/04 14:40:30;;;;;;;87.53;38.63;;;16.90;62.20;;;;;;5042734;28;20020;-92
2023/01/04 14:42:56;;;;;;;79.97;41.88;;;16.00;64.00;;;;;;5042983;28;20037;-92
2023/01/04 14:45:22;;;;;;;68.80;35.90;;;15.40;66.60;;;;;;5042584;28;20025;-92
2023/01/04 14:47:48;;;;;;;79.03;38.90;;;15.50;66.60;;;;;;5042582;28;20040;-92
2023/01/04 14:50:16;;;;;;;80.10;37.40;;;14.80;68.50;;;;;;5042545;28;20028;-92
2023/01/04 14:52:50;;;;;;;81.53;36.67;;;14.70;69.90;;;;;;5042875;28;20043;-92
2023/01/04 14:55:17;;;;;;;81.18;41.33;;;13.90;71.50;;;;;;5042442;28;20036;-92
2023/01/04 14:57:44;;;;;;;82.53;40.80;;;13.20;75.80;;;;;;5042538;28;20048;-92
2023/01/04 15:00:15;;;;;;;82.53;43.72;;;12.70;79.10;;;;;;5042333;28;20469;-92
2023/01/04 15:02:41;;;;;;;110.53;54.42;;;12.30;83.20;;;;;;5042326;28;20059;-92
2023/01/04 15:05:07;;;;;;;104.00;47.53;;;12.10;87.40;;;;;;5042290;28;20032;-92
2023/01/04 15:07:38;;;;;;;104.60;48.20;;;12.00;89.10;;;;;;5041849;28;20067;-92
2023/01/04 15:10:20;;;;;;;98.18;45.13;;;11.60;90.90;;;;;;5042068;28;20029;-92
2023/01/04 15:12:46;;;;;;;85.20;41.35;;;11.20;92.30;;;;;;5042760;28;20029;-92
2023/01/04 15:15:13;;;;;;;92.05;41.58;;;11.10;93.10;;;;;;5042187;28;20035;-92
2023/01/04 15:17:39;;;;;;;108.38;51.80;;;10.70;93.80;;;;;;5042171;28;20543;-92
2023/01/04 15:20:05;;;;;;;106.55;53.30;;;10.50;95.20;;;;;;5059739;28;20036;-92
2023/01/04 15:22:31;;;;;;;89.22;40.92;;;10.30;96.50;;;;;;5062042;28;20035;-92
2023/01/04 15:24:58;;;;;;;79.38;39.00;;;10.00;97.20;;;;;;5062046;28;20032;-92
2023/01/04 15:27:24;;;;;;;80.65;40.47;;;9.90;98.20;;;;;;5061965;28;20434;-93
2023/01/04 15:29:50;;;;;;;86.10;41.92;;;9.70;98.40;;;;;;5061781;28;20474;-92
2023/01/04 15:32:16;;;;;;;97.80;45.85;;;9.40;99.40;;;;;;5042030;28;20089;-92
2023/01/04 15:34:42;;;;;;;87.78;43.28;;;9.30;99.90;;;;;;5041707;28;20031;-91
2023/01/04 15:37:08;;;;;;;106.55;47.85;;;9.20;99.90;;;;;;5041627;28;20035;-91
2023/01/04 15:39:34;;;;;;;90.88;44.17;;;9.10;99.90;;;;;;5042100;28;20032;-92
2023/01/04 15:44:44;;;;;;;104.53;52.38;;;9.00;99.90;;;;;;5058363;28;20086;-91
2023/01/04 15:47:10;;;;;;;117.95;57.35;;;8.90;99.90;;;;;;5041638;28;20037;-92
2023/01/04 15:49:36;;;;;;;103.80;49.72;;;8.50;99.90;;;;;;5041736;28;20048;-92
2023/01/04 15:52:02;;;;;;;65.75;36.83;;;8.20;99.90;;;;;;5041803;28;20032;-92
2023/01/04 15:54:28;;;;;;;76.32;40.70;;;7.90;99.90;;;;;;5041744;28;20067;-94
2023/01/04 15:56:55;;;;;;;69.15;38.20;;;7.90;99.90;;;;;;5041744;28;20044;-94
2023/01/04 15:59:21;;;;;;;84.60;44.50;;;7.70;99.90;;;;;;5041597;28;20063;-94
2023/01/04 16:01:47;;;;;;;77.40;42.42;;;7.60;99.90;;;;;;5041790;28;20028;-93
2023/01/04 16:04:14;;;;;;;67.25;37.95;;;7.50;99.90;;;;;;5058106;28;20033;-94
2023/01/04 16:06:40;;;;;;;70.05;35.95;;;7.40;99.90;;;;;;5041583;28;20024;-93
2023/01/04 16:09:07;;;;;;;73.65;38.95;;;7.30;99.90;;;;;;5041406;28;20478;-94
2023/01/04 16:11:33;;;;;;;99.85;47.78;;;7.00;99.90;;;;;;5041496;28;20025;-93
2023/01/04 16:13:59;;;;;;;82.43;41.75;;;7.00;99.90;;;;;;5041508;28;20028;-93
2023/01/04 16:16:27;;;;;;;121.15;56.95;;;7.00;99.90;;;;;;5041769;28;20043;-94
2023/01/04 16:18:55;;;;;;;145.30;73.15;;;7.10;99.90;;;;;;5045025;28;20031;-94
2023/01/04 16:21:24;;;;;;;113.43;58.15;;;7.00;99.90;;;;;;5065651;28;20028;-93
2023/01/04 16:23:56;;;;;;;156.18;79.90;;;7.10;99.90;;;;;;5065495;28;20469;-93
2023/01/04 16:26:22;;;;;;;243.07;123.88;;;6.90;99.90;;;;;;5065440;28;20028;-94
2023/01/04 16:28:52;;;;;;;280.27;143.63;;;7.10;99.90;;;;;;5065236;28;20032;-93
2023/01/04 16:31:19;;;;;;;330.65;169.38;;;7.10;99.90;;;;;;5065166;28;20115;-94
2023/01/04 16:33:46;;;;;;;319.20;162.25;;;7.20;99.90;;;;;;5065129;28;20132;-94
2023/01/04 16:36:14;;;;;;;271.80;130.00;;;7.10;99.90;;;;;;5065328;28;20064;-92
2023/01/04 16:38:42;;;;;;;238.43;112.43;;;6.90;99.90;;;;;;5065273;28;20031;-94
2023/01/04 16:41:12;;;;;;;185.13;92.82;;;6.70;99.90;;;;;;5082049;28;20038;-93
2023/01/04 16:43:43;;;;;;;184.27;90.05;;;6.50;99.90;;;;;;5064890;28;20438;-94
2023/01/04 16:46:17;;;;;;;202.75;96.15;;;6.40;99.90;;;;;;5081906;28;20024;-94
2023/01/04 16:48:53;;;;;;;197.13;95.93;;;6.10;99.90;;;;;;5061438;28;20040;-94